createdAt,value
2019-02-06T00:01:06.349Z,4.33
2019-02-06T00:03:36.469Z,4.50
2019-02-06T00:06:06.778Z,4.73
2019-02-06T00:08:36.911Z,4.57
2019-02-06T00:11:08.582Z,4.17
2019-02-06T00:13:38.610Z,4.10
2019-02-06T00:16:11.104Z,4.07
2019-02-06T00:18:41.305Z,4.20
2019-02-06T00:21:13.090Z,4.83
2019-02-06T00:23:43.399Z,4.20
2019-02-06T00:26:13.841Z,4.37
2019-02-06T00:28:43.702Z,4.43
2019-02-06T00:31:13.482Z,4.13
2019-02-06T00:33:43.303Z,4.30
2019-02-06T00:36:13.346Z,4.70
2019-02-06T00:38:43.371Z,4.53
2019-02-06T00:41:13.838Z,4.17
2019-02-06T00:43:43.597Z,4.27
2019-02-06T00:46:13.361Z,4.67
2019-02-06T00:48:43.307Z,4.47
2019-02-06T00:51:13.115Z,4.33
2019-02-06T00:53:42.866Z,4.17
2019-02-06T00:56:19.306Z,4.53
2019-02-06T00:58:49.073Z,4.40
2019-02-06T01:01:20.933Z,4.47
2019-02-06T01:03:50.703Z,4.23
2019-02-06T01:06:22.015Z,4.30
2019-02-06T01:08:51.948Z,4.07
2019-02-06T01:11:28.998Z,4.87
2019-02-06T01:13:58.869Z,4.13
2019-02-06T01:16:28.722Z,3.80
2019-02-06T01:18:59.623Z,4.73
2019-02-06T01:21:30.628Z,4.13
2019-02-06T01:24:00.403Z,4.13
2019-02-06T01:26:30.330Z,3.93
2019-02-06T01:29:05.642Z,4.70
2019-02-06T01:31:35.702Z,4.17
2019-02-06T01:34:06.130Z,4.43
2019-02-06T01:36:35.971Z,4.67
2019-02-06T01:39:11.598Z,4.47
2019-02-06T01:41:41.509Z,4.40
2019-02-06T01:44:11.598Z,4.53
2019-02-06T01:46:41.450Z,4.67
2019-02-06T01:49:11.328Z,4.43
2019-02-06T01:51:41.161Z,4.30
2019-02-06T01:54:11.335Z,4.47
2019-02-06T01:56:42.404Z,4.70
2019-02-06T01:59:12.252Z,4.23
2019-02-06T02:01:42.018Z,4.13
2019-02-06T02:04:12.350Z,4.07
2019-02-06T02:06:42.245Z,4.73
2019-02-06T02:09:21.320Z,4.10
2019-02-06T02:11:51.798Z,4.50
2019-02-06T02:14:21.835Z,4.13
2019-02-06T02:16:51.934Z,3.93
2019-02-06T02:19:22.718Z,3.83
2019-02-06T02:21:53.726Z,4.30
2019-02-06T02:24:23.525Z,4.20
2019-02-06T02:26:53.478Z,4.70
2019-02-06T02:29:24.240Z,4.27
2019-02-06T02:31:54.238Z,4.40
2019-02-06T02:34:24.127Z,4.60
2019-02-06T02:36:53.951Z,4.17
2019-02-06T02:39:23.838Z,4.33
2019-02-06T02:41:53.734Z,4.43
2019-02-06T02:44:24.459Z,4.27
2019-02-06T02:46:56.218Z,4.73
2019-02-06T02:49:26.031Z,4.60
2019-02-06T02:52:06.262Z,4.50
2019-02-06T02:54:36.075Z,4.20
2019-02-06T02:57:12.526Z,4.30
2019-02-06T02:59:42.414Z,4.40
2019-02-06T03:02:28.838Z,4.43
2019-02-06T03:05:02.866Z,4.53
2019-02-06T03:07:32.873Z,4.67
2019-02-06T03:10:02.751Z,4.60
2019-02-06T03:12:32.638Z,4.40
2019-02-06T03:15:03.062Z,4.50
2019-02-06T03:17:32.929Z,4.13
2019-02-06T03:20:05.091Z,4.80
2019-02-06T03:22:36.624Z,5.13
2019-02-06T03:25:07.724Z,4.67
2019-02-06T03:27:43.027Z,4.93
2019-02-06T03:30:15.945Z,4.23
2019-02-06T03:32:46.015Z,4.60
2019-02-06T03:35:17.858Z,4.50
2019-02-06T03:37:49.914Z,4.50
2019-02-06T03:40:19.907Z,4.53
2019-02-06T03:42:49.911Z,4.70
2019-02-06T03:45:20.157Z,4.47
2019-02-06T03:47:50.114Z,4.10
2019-02-06T03:50:20.357Z,4.20
2019-02-06T03:52:50.319Z,4.17
2019-02-06T03:55:20.272Z,4.47
2019-02-06T03:57:50.139Z,4.27
2019-02-06T04:00:21.188Z,4.03
2019-02-06T04:02:50.978Z,4.17
2019-02-06T04:05:20.916Z,4.40
2019-02-06T04:07:50.732Z,4.27
2019-02-06T04:10:21.364Z,4.30
2019-02-06T04:12:51.277Z,4.50
2019-02-06T04:15:21.242Z,4.50
2019-02-06T04:17:54.297Z,4.40
2019-02-06T04:20:23.023Z,4.10
2019-02-06T04:22:53.331Z,4.23
2019-02-06T04:25:26.927Z,4.17
2019-02-06T09:21:43.979Z,4.93
2019-02-06T09:24:14.662Z,4.60
2019-02-06T09:26:45.879Z,5.27
2019-02-06T09:29:15.748Z,5.03
2019-02-06T09:31:45.622Z,5.50
2019-02-06T09:34:15.813Z,4.80
2019-02-06T09:36:45.749Z,4.87
2019-02-06T09:39:15.560Z,4.80
2019-02-06T09:41:45.455Z,5.17
2019-02-06T09:44:34.891Z,4.93
2019-02-06T09:47:04.693Z,4.97
2019-02-06T09:49:34.573Z,4.67
2019-02-06T09:52:04.524Z,5.40
2019-02-06T09:54:34.415Z,4.80
2019-02-06T09:57:04.398Z,4.90
2019-02-06T09:59:35.392Z,5.30
2019-02-06T10:02:05.463Z,5.27
2019-02-06T10:04:35.741Z,5.17
2019-02-06T10:07:06.081Z,4.70
2019-02-06T10:09:37.302Z,4.93
2019-02-06T10:12:07.238Z,5.20
2019-02-06T10:14:37.736Z,4.70
2019-02-06T10:17:07.533Z,4.73
2019-02-06T10:19:37.669Z,4.43
2019-02-06T10:22:08.539Z,4.70
2019-02-06T10:24:38.535Z,4.40
2019-02-06T10:27:08.758Z,4.60
2019-02-06T10:29:39.871Z,4.27
2019-02-06T10:32:09.834Z,4.73
2019-02-06T10:34:41.169Z,4.87
2019-02-06T10:37:11.784Z,4.40
2019-02-06T10:39:41.597Z,4.83
2019-02-06T10:42:12.007Z,4.60
2019-02-06T10:44:41.823Z,4.90
2019-02-06T10:47:11.734Z,4.20
2019-02-06T10:49:41.628Z,4.60
2019-02-06T10:52:11.604Z,5.07
2019-02-06T10:54:41.418Z,4.83
2019-02-06T10:57:11.899Z,4.40
2019-02-06T10:59:41.833Z,4.47
2019-02-06T11:02:13.615Z,5.03
2019-02-06T11:04:43.515Z,4.73
2019-02-06T11:07:13.470Z,4.90
2019-02-06T11:09:46.610Z,4.53
2019-02-06T11:12:15.042Z,4.33
2019-02-06T11:14:44.917Z,5.10
2019-02-06T11:17:14.706Z,4.67
2019-02-06T11:19:44.506Z,4.63
2019-02-06T11:22:14.526Z,4.90
2019-02-06T11:24:44.614Z,5.07
2019-02-06T11:27:16.248Z,4.93
2019-02-06T11:29:48.458Z,5.30
2019-02-06T11:32:18.943Z,4.70
2019-02-06T11:34:48.926Z,5.10
2019-02-06T11:37:19.297Z,5.00
2019-02-06T11:39:57.608Z,4.20
2019-02-06T11:42:20.638Z,4.33
2019-02-06T11:44:51.316Z,4.70
2019-02-06T11:47:21.435Z,4.70
2019-02-06T11:49:55.430Z,5.07
2019-02-06T11:52:26.783Z,5.07
2019-02-06T11:54:56.594Z,4.83
2019-02-06T11:57:26.488Z,5.60
2019-02-06T11:59:56.443Z,5.00
2019-02-06T12:02:36.658Z,4.87
2019-02-06T12:04:58.046Z,5.23
2019-02-06T12:07:29.634Z,5.10
2019-02-06T12:10:09.495Z,4.50
2019-02-06T12:12:31.310Z,5.10
2019-02-06T12:15:01.176Z,5.40
2019-02-06T12:17:30.963Z,5.90
2019-02-06T12:20:01.455Z,5.03
2019-02-06T12:22:31.334Z,5.57
2019-02-06T12:25:01.213Z,5.17
2019-02-06T12:27:31.398Z,5.27
2019-02-06T12:30:03.161Z,5.37
2019-02-06T12:32:33.034Z,5.00
2019-02-06T12:35:03.472Z,5.10
2019-02-06T12:37:34.167Z,5.30
2019-02-06T12:40:05.859Z,5.60
2019-02-06T12:42:35.739Z,6.13
2019-02-06T12:45:06.171Z,5.00
2019-02-06T12:47:36.043Z,5.40
2019-02-06T12:50:07.180Z,5.33
2019-02-06T12:52:37.328Z,5.23
2019-02-06T12:55:10.251Z,5.43
2019-02-06T12:57:40.118Z,5.40
2019-02-06T13:00:14.878Z,5.40
2019-02-06T13:02:47.081Z,5.37
2019-02-06T13:05:17.455Z,5.43
2019-02-06T13:07:47.327Z,6.43
2019-02-06T13:10:17.573Z,6.67
2019-02-06T13:12:49.199Z,5.50
2019-02-06T13:15:20.465Z,5.50
2019-02-06T13:17:52.195Z,6.10
2019-02-06T13:20:24.993Z,5.80
2019-02-06T13:22:56.222Z,6.03
2019-02-06T13:25:27.097Z,5.40
2019-02-06T13:27:59.649Z,6.00
2019-02-06T13:30:32.857Z,5.67
2019-02-06T13:33:03.878Z,5.60
2019-02-06T13:35:34.123Z,5.07
2019-02-06T13:38:05.774Z,5.67
2019-02-06T13:40:45.272Z,5.80
2019-02-06T13:43:08.067Z,5.20
2019-02-06T13:45:43.591Z,5.47
2019-02-06T13:48:13.506Z,5.60
2019-02-06T13:50:43.735Z,5.73
2019-02-06T13:53:14.212Z,6.50
2019-02-06T13:55:44.172Z,5.70
2019-02-06T13:58:20.418Z,6.10
2019-02-06T14:00:46.125Z,5.87
2019-02-06T14:03:16.027Z,5.87
2019-02-06T14:05:47.080Z,6.53
2019-02-06T14:08:18.678Z,5.83
2019-02-06T14:10:59.912Z,5.73
2019-02-06T14:13:20.888Z,5.67
2019-02-06T14:15:51.387Z,6.03
2019-02-06T14:18:21.880Z,5.57
2019-02-06T14:20:53.788Z,6.10
2019-02-06T14:24:18.167Z,6.57
2019-02-06T14:27:32.310Z,5.60
2019-02-06T14:31:00.070Z,5.70
2019-02-06T14:33:41.042Z,6.03
2019-02-06T14:36:42.815Z,5.90
2019-02-06T14:39:37.088Z,6.83
2019-02-06T14:43:05.568Z,6.53
2019-02-06T14:46:09.807Z,6.60
2019-02-06T14:49:17.119Z,5.90
2019-02-06T14:52:27.809Z,5.90
2019-02-06T14:55:28.792Z,5.83
2019-02-06T14:58:27.573Z,5.43
2019-02-06T15:01:11.774Z,5.93
2019-02-06T15:04:07.665Z,5.30
2019-02-06T15:07:19.900Z,5.07
2019-02-06T15:10:17.890Z,5.47
2019-02-06T15:13:26.796Z,5.43
2019-02-06T15:16:52.974Z,5.53
2019-02-06T15:19:48.353Z,5.50
2019-02-06T15:22:52.800Z,5.90
2019-02-06T15:26:07.851Z,5.50
2019-02-06T15:29:04.285Z,5.10
2019-02-06T15:32:11.330Z,5.33
2019-02-06T15:35:40.558Z,5.50
2019-02-06T15:38:30.863Z,5.60
2019-02-06T15:41:31.336Z,5.30
2019-02-06T15:44:48.846Z,4.90
2019-02-06T15:47:57.306Z,4.83
2019-02-06T15:51:06.438Z,5.27
2019-02-06T15:54:26.518Z,5.83
2019-02-06T15:57:39.803Z,5.30
2019-02-06T16:00:53.640Z,5.50
2019-02-06T16:04:20.302Z,5.47
2019-02-06T16:07:08.659Z,5.30
2019-02-06T16:10:10.246Z,5.10
2019-02-06T16:13:02.738Z,5.00
2019-02-06T16:15:41.634Z,5.27
2019-02-06T16:18:52.071Z,5.23
2019-02-06T16:22:14.058Z,5.40
2019-02-06T16:25:01.198Z,5.03
2019-02-06T16:27:51.262Z,4.80
2019-02-06T16:30:55.291Z,4.70
2019-02-06T16:34:05.433Z,5.07
2019-02-06T16:37:16.477Z,5.00
2019-02-06T16:40:32.107Z,4.80
2019-02-06T16:43:25.081Z,4.70
2019-02-06T16:46:18.047Z,5.23
2019-02-06T16:49:10.314Z,4.40
2019-02-06T16:52:05.843Z,4.70
2019-02-06T16:55:23.099Z,4.40
2019-02-06T16:58:26.091Z,4.60
2019-02-06T17:01:32.339Z,4.67
2019-02-06T17:04:53.747Z,4.27
2019-02-06T17:07:35.483Z,4.83
2019-02-06T17:10:52.631Z,4.73
2019-02-06T17:13:41.355Z,5.43
2019-02-06T17:16:48.416Z,4.93
2019-02-06T17:19:46.923Z,4.63
2019-02-06T17:22:42.423Z,4.73
2019-02-06T17:25:34.489Z,4.47
2019-02-06T17:28:24.420Z,4.53
2019-02-06T17:31:26.626Z,4.80
2019-02-06T17:34:26.774Z,5.17
2019-02-06T17:37:19.190Z,4.80
2019-02-06T17:40:17.746Z,4.50
2019-02-06T17:43:00.705Z,5.17
2019-02-06T17:45:49.386Z,5.03
2019-02-06T17:48:41.312Z,4.83
2019-02-06T17:52:08.051Z,5.27
2019-02-06T17:55:19.203Z,4.67
2019-02-06T17:57:51.401Z,4.77
2019-02-06T18:00:35.076Z,5.10
2019-02-06T18:03:06.671Z,5.03
2019-02-06T18:05:36.655Z,5.17
2019-02-06T18:08:07.305Z,4.67
2019-02-06T18:10:38.243Z,5.13
2019-02-06T18:13:08.311Z,5.20
2019-02-06T18:15:38.445Z,5.27
2019-02-06T18:18:08.315Z,4.70
2019-02-06T18:20:39.662Z,5.30
2019-02-06T18:23:10.332Z,4.57
2019-02-06T18:25:41.549Z,5.13
2019-02-06T18:28:12.152Z,5.07
2019-02-06T18:30:43.417Z,5.33
2019-02-06T18:33:14.603Z,4.83
2019-02-06T18:35:45.559Z,5.50
2019-02-06T18:38:15.539Z,5.73
2019-02-06T18:40:48.609Z,5.00
2019-02-06T18:43:19.021Z,5.10
2019-02-06T18:45:49.270Z,4.80
2019-02-06T18:48:21.560Z,5.13
2019-02-06T18:50:53.343Z,5.03
2019-02-06T18:53:23.287Z,5.03
2019-02-06T18:55:53.182Z,5.10
2019-02-06T18:58:23.074Z,4.80
2019-02-06T19:00:53.046Z,5.07
2019-02-06T19:03:26.862Z,5.13
2019-02-06T19:05:56.995Z,4.93
2019-02-06T19:08:26.862Z,4.60
2019-02-06T19:10:56.917Z,5.13
2019-02-06T19:13:26.824Z,5.20
2019-02-06T19:15:57.045Z,4.77
2019-02-06T19:18:26.983Z,5.20
2019-02-06T19:20:56.903Z,4.60
2019-02-06T19:23:27.365Z,4.70
2019-02-06T19:25:57.510Z,4.80
2019-02-06T19:28:29.199Z,5.00
2019-02-06T19:31:00.534Z,4.70
2019-02-06T19:33:30.404Z,5.03
2019-02-06T19:36:00.345Z,5.30
2019-02-06T19:38:30.142Z,4.90
2019-02-06T19:41:02.787Z,5.10
2019-02-06T19:43:32.826Z,4.63
2019-02-06T19:46:02.627Z,5.30
2019-02-06T19:48:34.455Z,5.23
2019-02-06T19:51:05.586Z,5.17
2019-02-06T19:53:35.715Z,5.00
2019-02-06T19:56:06.347Z,5.40
2019-02-06T19:58:36.160Z,4.83
2019-02-06T20:01:06.604Z,5.50
2019-02-06T20:03:36.474Z,5.50
2019-02-06T20:06:06.414Z,5.33
2019-02-06T20:08:36.282Z,5.53
2019-02-06T20:11:06.116Z,5.23
2019-02-06T20:13:36.370Z,5.47
2019-02-06T20:16:06.355Z,5.20
2019-02-06T20:18:36.197Z,4.97
2019-02-06T20:21:06.335Z,4.80
2019-02-06T20:23:36.523Z,4.97
2019-02-06T20:26:08.409Z,5.30
2019-02-06T20:28:39.460Z,5.07
2019-02-06T20:31:11.294Z,5.47
2019-02-06T20:33:41.744Z,5.20
2019-02-06T20:36:12.249Z,4.90
2019-02-06T20:38:42.266Z,4.87
2019-02-06T20:41:12.174Z,4.90
2019-02-06T20:43:43.879Z,5.23
2019-02-06T20:46:14.762Z,5.63
2019-02-06T20:48:44.702Z,5.37
2019-02-06T20:51:14.506Z,5.23
2019-02-06T20:53:44.730Z,5.60
2019-02-06T20:56:14.536Z,5.80
2019-02-06T20:58:44.338Z,5.73
2019-02-06T21:01:14.133Z,5.40
2019-02-06T21:03:43.930Z,5.30
2019-02-06T21:06:13.794Z,5.63
2019-02-06T21:08:43.990Z,5.53
2019-02-06T21:11:13.787Z,5.10
2019-02-06T21:13:43.655Z,5.87
2019-02-06T21:16:14.082Z,5.40
2019-02-06T21:18:44.498Z,5.53
2019-02-06T21:21:14.452Z,6.03
2019-02-06T21:23:44.269Z,5.50
2019-02-06T21:26:14.914Z,5.43
2019-02-06T21:28:47.166Z,5.50
2019-02-06T21:31:16.955Z,5.57
2019-02-06T21:33:46.759Z,5.60
2019-02-06T21:36:16.602Z,5.40
2019-02-06T21:38:46.396Z,5.83
2019-02-06T21:41:16.270Z,5.30
2019-02-06T21:43:47.675Z,5.47
2019-02-06T21:46:18.528Z,5.20
2019-02-06T21:48:48.357Z,6.33
2019-02-06T21:51:18.156Z,5.80
2019-02-06T21:53:48.023Z,6.10
2019-02-06T21:56:17.852Z,6.00
2019-02-06T21:58:47.754Z,5.87
2019-02-06T22:01:17.611Z,5.87
2019-02-06T22:03:47.445Z,5.60
2019-02-06T22:06:17.641Z,5.77
2019-02-06T22:08:48.859Z,5.40
2019-02-06T22:11:19.026Z,5.60
2019-02-06T22:13:55.098Z,5.90
2019-02-06T22:16:23.984Z,5.47
2019-02-06T22:18:53.803Z,5.57
2019-02-06T22:21:23.623Z,5.90
2019-02-06T22:23:53.986Z,5.73
2019-02-06T22:26:24.878Z,5.23
2019-02-06T22:28:55.119Z,5.60
2019-02-06T22:31:25.410Z,5.90
2019-02-06T22:33:55.769Z,5.47
2019-02-06T22:36:25.598Z,5.23
2019-02-06T22:39:00.274Z,5.97
2019-02-06T22:41:30.073Z,5.93
2019-02-06T22:44:06.586Z,6.50
2019-02-06T22:46:34.126Z,6.20
2019-02-06T22:49:04.084Z,5.60
2019-02-06T22:51:33.916Z,6.07
2019-02-06T22:54:04.847Z,6.30
2019-02-06T22:56:45.612Z,5.43
2019-02-06T22:59:16.880Z,5.30
2019-02-06T23:01:54.734Z,5.73
2019-02-06T23:04:24.563Z,5.87
2019-02-06T23:06:55.554Z,5.97
2019-02-06T23:09:28.771Z,5.93
2019-02-06T23:11:59.299Z,5.87
2019-02-06T23:14:29.712Z,5.60
2019-02-06T23:16:59.746Z,6.40
2019-02-06T23:19:29.610Z,6.67
2019-02-06T23:21:59.450Z,6.37
2019-02-06T23:24:29.313Z,6.20
2019-02-06T23:27:01.323Z,6.53
2019-02-06T23:29:31.562Z,5.83
2019-02-06T23:32:01.442Z,5.87
2019-02-06T23:34:31.299Z,5.73
2019-02-06T23:37:01.168Z,5.77
2019-02-06T23:39:30.957Z,5.53
2019-02-06T23:42:13.222Z,5.83
2019-02-06T23:44:48.464Z,5.63
2019-02-06T23:47:19.384Z,6.10
2019-02-06T23:49:49.838Z,6.47
2019-02-06T23:52:21.264Z,6.07
2019-02-06T23:54:51.054Z,5.93
2019-02-06T23:57:20.847Z,5.73
2019-02-06T23:59:50.847Z,6.47
